createdAt,value
2022-11-05T00:02:20.781Z,100022.06
2022-11-05T00:05:05.393Z,100018.66
2022-11-05T00:08:06.241Z,100025.91
2022-11-05T00:10:36.663Z,100033.19
2022-11-05T00:13:22.158Z,100033.06
2022-11-05T00:16:07.561Z,100033.84
2022-11-05T00:18:33.939Z,100038.41
2022-11-05T00:21:00.317Z,100041.25
2022-11-05T00:23:45.163Z,100041.44
2022-11-05T00:26:12.407Z,100036.22
2022-11-05T00:28:43.892Z,100042.66
2022-11-05T00:31:12.741Z,100043.72
2022-11-05T00:33:40.608Z,100036.34
2022-11-05T00:36:09.037Z,100040.88
2022-11-05T00:38:36.345Z,100046.88
2022-11-05T00:41:02.780Z,100046.88
2022-11-05T00:43:47.675Z,100049.47
2022-11-05T00:46:13.999Z,100058.66
2022-11-05T00:48:59.375Z,100055.13
2022-11-05T00:51:25.722Z,100064.41
2022-11-05T00:53:52.083Z,100059.56
2022-11-05T00:56:18.491Z,100071.00
2022-11-05T00:58:45.423Z,100066.22
2022-11-05T01:01:12.007Z,100069.09
2022-11-05T01:03:39.647Z,100070.56
2022-11-05T01:06:09.771Z,100076.78
2022-11-05T01:08:36.972Z,100079.13
2022-11-05T01:11:10.526Z,100075.34
2022-11-05T01:13:37.931Z,100083.44
2022-11-05T01:16:07.465Z,100089.69
2022-11-05T01:18:34.152Z,100081.72
2022-11-05T01:21:00.511Z,100086.81
2022-11-05T01:23:28.600Z,100090.50
2022-11-05T01:25:58.146Z,100089.72
2022-11-05T01:28:24.523Z,100087.22
2022-11-05T01:30:56.135Z,100092.38
2022-11-05T01:33:22.521Z,100099.47
2022-11-05T01:35:51.636Z,100099.59
2022-11-05T01:38:18.562Z,100099.47
2022-11-05T01:40:45.275Z,100110.13
2022-11-05T01:43:16.835Z,100112.78
2022-11-05T01:45:45.867Z,100109.00
2022-11-05T01:48:22.810Z,100107.38
2022-11-05T01:50:55.650Z,100113.72
2022-11-05T01:53:25.426Z,100109.19
2022-11-05T01:56:00.715Z,100113.56
2022-11-05T01:58:32.660Z,100116.22
2022-11-05T02:00:59.099Z,100114.16
2022-11-05T02:03:26.815Z,100124.09
2022-11-05T02:05:56.703Z,100121.63
2022-11-05T02:08:43.144Z,100125.91
2022-11-05T02:11:13.177Z,100137.66
2022-11-05T02:13:40.182Z,100136.94
2022-11-05T02:16:12.605Z,100138.88
2022-11-05T02:18:59.034Z,100136.25
2022-11-05T02:21:57.415Z,100149.22
2022-11-05T02:24:56.396Z,100144.72
2022-11-05T02:27:37.816Z,100148.97
2022-11-05T02:30:04.234Z,100135.91
2022-11-05T02:32:58.333Z,100149.25
2022-11-05T02:36:02.882Z,100153.22
2022-11-05T02:38:35.440Z,100155.78
2022-11-05T02:41:30.763Z,100152.59
2022-11-05T02:44:12.305Z,100159.06
2022-11-05T02:46:51.630Z,100155.38
2022-11-05T02:49:26.877Z,100162.09
2022-11-05T02:52:01.063Z,100162.41
2022-11-05T02:54:44.174Z,100159.56
2022-11-05T02:57:10.545Z,100164.81
2022-11-05T02:59:36.908Z,100168.13
2022-11-05T03:02:03.808Z,100168.56
2022-11-05T03:04:32.269Z,100175.03
2022-11-05T03:07:20.307Z,100167.88
2022-11-05T03:10:05.512Z,100177.47
2022-11-05T03:12:50.570Z,100172.69
2022-11-05T03:15:31.845Z,100174.81
2022-11-05T03:18:13.133Z,100183.19
2022-11-05T03:20:58.615Z,100184.94
2022-11-05T03:23:45.300Z,100182.44
2022-11-05T03:26:23.951Z,100188.00
2022-11-05T03:28:56.301Z,100187.25
2022-11-05T03:31:25.032Z,100190.91
2022-11-05T03:33:54.784Z,100196.38
2022-11-05T03:36:28.419Z,100205.28
2022-11-05T03:38:58.239Z,100206.00
2022-11-05T03:41:25.799Z,100208.38
2022-11-05T03:43:57.186Z,100204.94
2022-11-05T03:46:32.843Z,100215.75
2022-11-05T03:49:02.811Z,100219.31
2022-11-05T03:51:42.458Z,100223.81
2022-11-05T03:54:09.972Z,100227.44
2022-11-05T03:56:57.936Z,100224.88
2022-11-05T03:59:25.211Z,100237.66
2022-11-05T04:01:51.719Z,100240.69
2022-11-05T04:04:18.162Z,100234.53
2022-11-05T04:07:03.153Z,100238.09
2022-11-05T04:10:07.817Z,100244.28
2022-11-05T04:12:52.866Z,100254.03
2022-11-05T04:15:19.294Z,100251.22
2022-11-05T04:17:45.656Z,100248.41
2022-11-05T04:20:30.975Z,100254.72
2022-11-05T04:23:24.362Z,100254.63
2022-11-05T04:25:51.435Z,100251.06
2022-11-05T04:28:17.923Z,100250.00
2022-11-05T04:30:44.494Z,100252.91
2022-11-05T04:33:14.320Z,100260.22
2022-11-05T04:35:46.568Z,100269.09
2022-11-05T04:38:18.074Z,100264.78
2022-11-05T04:40:46.063Z,100267.34
2022-11-05T04:43:15.438Z,100263.88
2022-11-05T04:45:42.153Z,100270.25
2022-11-05T04:48:08.582Z,100270.19
2022-11-05T04:50:35.193Z,100272.91
2022-11-05T04:53:01.671Z,100270.41
2022-11-05T04:55:28.412Z,100280.41
2022-11-05T04:57:55.409Z,100274.63
2022-11-05T05:00:23.525Z,100280.03
2022-11-05T05:02:50.155Z,100283.38
2022-11-05T05:05:16.627Z,100280.59
2022-11-05T05:07:43.183Z,100286.00
2022-11-05T05:10:10.368Z,100283.38
2022-11-05T05:12:37.160Z,100286.72
2022-11-05T05:15:03.987Z,100285.72
2022-11-05T05:17:30.454Z,100287.31
2022-11-05T05:20:15.258Z,100294.50
2022-11-05T05:22:41.719Z,100296.31
2022-11-05T05:25:08.252Z,100305.97
2022-11-05T05:27:34.600Z,100308.56
2022-11-05T05:30:01.078Z,100308.66
2022-11-05T05:32:27.574Z,100304.34
2022-11-05T05:34:54.060Z,100308.63
2022-11-05T05:37:20.575Z,100312.06
2022-11-05T05:39:48.014Z,100309.44
2022-11-05T05:42:14.527Z,100309.41
2022-11-05T05:44:40.985Z,100315.56
2022-11-05T05:47:07.354Z,100311.91
2022-11-05T05:49:33.748Z,100316.44
2022-11-05T05:52:00.142Z,100319.25
2022-11-05T05:54:32.114Z,100315.81
2022-11-05T05:56:59.903Z,100321.28
2022-11-05T05:59:26.304Z,100330.25
2022-11-05T06:01:52.847Z,100333.88
2022-11-05T06:04:19.433Z,100335.88
2022-11-05T06:06:46.891Z,100344.81
2022-11-05T06:09:14.355Z,100348.47
2022-11-05T06:11:41.295Z,100347.66
2022-11-05T06:14:11.247Z,100359.22
2022-11-05T06:16:38.996Z,100345.59
2022-11-05T06:19:06.512Z,100352.94
2022-11-05T06:21:33.283Z,100359.00
2022-11-05T06:24:01.418Z,100355.63
2022-11-05T06:26:28.236Z,100363.00
2022-11-05T06:28:54.769Z,100368.53
2022-11-05T06:31:21.157Z,100375.84
2022-11-05T06:33:47.653Z,100385.47
2022-11-05T06:36:18.405Z,100381.38
2022-11-05T06:38:44.963Z,100382.50
2022-11-05T06:41:11.426Z,100387.84
2022-11-05T06:43:38.906Z,100386.22
2022-11-05T06:46:05.745Z,100397.78
2022-11-05T06:48:32.174Z,100396.97
2022-11-05T06:50:58.565Z,100400.50
2022-11-05T06:53:25.177Z,100406.88
2022-11-05T06:55:51.553Z,100410.41
2022-11-05T06:58:18.086Z,100409.38
2022-11-05T07:00:45.018Z,100422.69
2022-11-05T07:03:12.555Z,100432.47
2022-11-05T07:05:45.017Z,100433.50
2022-11-05T07:08:11.402Z,100441.28
2022-11-05T07:10:37.768Z,100454.53
2022-11-05T07:13:08.100Z,100451.91
2022-11-05T07:15:35.301Z,100449.22
2022-11-05T07:18:02.144Z,100453.19
2022-11-05T07:20:33.520Z,100451.53
2022-11-05T07:23:08.239Z,100463.16
2022-11-05T07:25:35.079Z,100462.47
2022-11-05T07:28:02.252Z,100461.25
2022-11-05T07:30:29.125Z,100470.03
2022-11-05T07:32:55.510Z,100466.16
2022-11-05T07:35:22.509Z,100461.50
2022-11-05T07:37:50.831Z,100474.44
2022-11-05T07:40:19.239Z,100483.22
2022-11-05T07:42:50.428Z,100481.44
2022-11-05T07:45:16.874Z,100486.78
2022-11-05T07:47:48.161Z,100485.44
2022-11-05T07:50:16.148Z,100486.41
2022-11-05T07:52:42.661Z,100486.31
2022-11-05T07:55:10.346Z,100484.59
2022-11-05T07:57:44.710Z,100478.72
2022-11-05T08:00:14.178Z,100488.50
2022-11-05T08:02:42.155Z,100493.66
2022-11-05T08:05:09.907Z,100493.38
2022-11-05T08:07:36.444Z,100496.66
2022-11-05T08:10:04.224Z,100500.88
2022-11-05T08:12:31.605Z,100500.78
2022-11-05T08:14:58.047Z,100491.97
2022-11-05T08:17:24.636Z,100486.22
2022-11-05T08:19:51.018Z,100494.16
2022-11-05T08:22:17.337Z,100496.84
2022-11-05T08:24:43.664Z,100502.50
2022-11-05T08:27:10.013Z,100505.59
2022-11-05T08:29:36.342Z,100503.38
2022-11-05T08:32:02.756Z,100511.41
2022-11-05T08:34:29.128Z,100507.72
2022-11-05T08:36:55.460Z,100509.25
2022-11-05T08:39:21.903Z,100518.09
2022-11-05T08:41:52.753Z,100526.34
2022-11-05T08:44:19.120Z,100522.34
2022-11-05T08:46:45.461Z,100518.66
2022-11-05T08:49:11.803Z,100530.63
2022-11-05T08:51:38.469Z,100530.09
2022-11-05T08:54:05.109Z,100532.97
2022-11-05T08:56:31.502Z,100531.25
2022-11-05T08:58:57.846Z,100532.09
2022-11-05T09:01:24.255Z,100533.84
2022-11-05T09:03:51.930Z,100533.53
2022-11-05T09:06:20.188Z,100532.41
2022-11-05T09:08:46.727Z,100535.72
2022-11-05T09:11:13.174Z,100530.88
2022-11-05T09:13:39.560Z,100535.44
2022-11-05T09:16:06.522Z,100532.44
2022-11-05T09:18:33.575Z,100536.03
2022-11-05T09:20:59.913Z,100536.03
2022-11-05T09:23:26.238Z,100532.66
2022-11-05T09:25:52.601Z,100537.06
2022-11-05T09:28:20.553Z,100543.22
2022-11-05T09:30:52.465Z,100541.53
2022-11-05T09:33:21.936Z,100541.63
2022-11-05T09:35:48.441Z,100541.09
2022-11-05T09:38:15.101Z,100542.22
2022-11-05T09:41:02.550Z,100560.06
2022-11-05T09:43:47.535Z,100558.81
2022-11-05T09:46:13.889Z,100562.72
2022-11-05T09:48:42.263Z,100553.88
2022-11-05T09:51:18.069Z,100561.59
2022-11-05T09:53:49.754Z,100558.16
2022-11-05T09:56:23.662Z,100556.75
2022-11-05T09:59:21.417Z,100564.09
2022-11-05T10:01:49.043Z,100563.72
2022-11-05T10:04:22.192Z,100558.34
2022-11-05T10:06:52.309Z,100563.00
2022-11-05T10:09:26.723Z,100574.44
2022-11-05T10:12:18.605Z,100582.25
2022-11-05T10:14:56.348Z,100583.84
2022-11-05T10:17:26.453Z,100581.13
2022-11-05T10:20:24.198Z,100584.19
2022-11-05T10:23:01.629Z,100582.00
2022-11-05T10:25:33.896Z,100576.53
2022-11-05T10:28:00.405Z,100579.38
2022-11-05T10:30:26.879Z,100579.19
2022-11-05T10:32:57.023Z,100581.25
2022-11-05T10:35:26.800Z,100578.03
2022-11-05T10:37:55.744Z,100591.44
2022-11-05T10:40:42.798Z,100590.41
2022-11-05T10:43:24.667Z,100586.66
2022-11-05T10:46:02.864Z,100592.47
2022-11-05T10:48:45.930Z,100594.50
2022-11-05T10:51:13.455Z,100589.34
2022-11-05T10:53:49.887Z,100593.91
2022-11-05T10:56:33.450Z,100591.63
2022-11-05T10:59:06.665Z,100581.91
2022-11-05T11:01:36.109Z,100581.09
2022-11-05T11:04:14.853Z,100581.28
2022-11-05T11:06:48.490Z,100583.03
2022-11-05T11:09:21.729Z,100587.22
2022-11-05T11:11:55.504Z,100590.16
2022-11-05T11:14:22.339Z,100584.13
2022-11-05T11:16:51.200Z,100582.16
2022-11-05T11:19:20.251Z,100582.56
2022-11-05T11:21:46.881Z,100587.09
2022-11-05T11:24:23.111Z,100593.53
2022-11-05T11:26:49.526Z,100585.16
2022-11-05T11:29:25.754Z,100590.81
2022-11-05T11:31:56.874Z,100586.25
2022-11-05T11:34:29.657Z,100589.50
2022-11-05T11:37:07.961Z,100589.66
2022-11-05T11:39:35.685Z,100588.38
2022-11-05T11:42:09.297Z,100585.88
2022-11-05T11:44:42.671Z,100575.31
2022-11-05T11:47:16.613Z,100576.09
2022-11-05T11:49:47.231Z,100585.28
2022-11-05T11:52:16.571Z,100581.47
2022-11-05T11:54:43.105Z,100574.72
2022-11-05T11:57:27.145Z,100570.72
2022-11-05T12:00:08.244Z,100578.47
2022-11-05T12:02:47.386Z,100572.00
2022-11-05T12:05:22.974Z,100574.16
2022-11-05T12:07:57.961Z,100565.06
2022-11-05T12:10:35.119Z,100566.91
2022-11-05T12:13:20.585Z,100562.25
2022-11-05T12:15:51.794Z,100559.03
2022-11-05T12:18:42.101Z,100559.31
2022-11-05T12:21:50.853Z,100558.66
2022-11-05T12:24:38.174Z,100558.25
2022-11-05T12:27:23.137Z,100554.66
2022-11-05T12:30:15.686Z,100555.72
2022-11-05T12:32:54.224Z,100550.16
2022-11-05T12:35:35.631Z,100551.03
2022-11-05T12:38:04.922Z,100546.53
2022-11-05T12:41:08.269Z,100551.44
2022-11-05T12:43:53.211Z,100559.97
2022-11-05T12:46:37.304Z,100560.09
2022-11-05T12:49:19.046Z,100559.13
2022-11-05T12:52:07.290Z,100559.50
2022-11-05T12:54:41.853Z,100562.88
2022-11-05T12:57:12.189Z,100562.09
2022-11-05T13:00:16.742Z,100570.28
2022-11-05T13:02:49.215Z,100577.44
2022-11-05T13:05:21.351Z,100586.16
2022-11-05T13:08:04.015Z,100599.19
2022-11-05T13:10:45.302Z,100600.44
2022-11-05T13:13:31.108Z,100603.44
2022-11-05T13:16:01.887Z,100605.00
2022-11-05T13:18:35.993Z,100594.13
2022-11-05T13:21:05.794Z,100597.38
2022-11-05T13:23:46.921Z,100588.13
2022-11-05T13:26:28.369Z,100587.31
2022-11-05T13:29:05.573Z,100578.50
2022-11-05T13:31:37.413Z,100583.47
2022-11-05T13:34:12.614Z,100583.59
2022-11-05T13:37:11.326Z,100569.44
2022-11-05T13:39:54.578Z,100577.44
2022-11-05T13:42:30.043Z,100580.72
2022-11-05T13:45:08.453Z,100580.84
2022-11-05T13:47:48.869Z,100584.03
2022-11-05T13:50:49.221Z,100584.84
2022-11-05T13:53:42.517Z,100580.66
2022-11-05T13:56:12.482Z,100588.75
2022-11-05T13:59:00.129Z,100581.44
2022-11-05T14:01:45.646Z,100579.78
2022-11-05T14:04:37.866Z,100582.81
2022-11-05T14:07:10.578Z,100584.88
2022-11-05T14:09:38.692Z,100579.41
2022-11-05T14:12:14.733Z,100590.78
2022-11-05T14:14:47.709Z,100590.69
2022-11-05T14:17:25.577Z,100589.56
2022-11-05T14:20:07.300Z,100586.09
2022-11-05T14:22:33.664Z,100588.56
2022-11-05T14:25:01.483Z,100590.19
2022-11-05T14:27:36.553Z,100588.44
2022-11-05T14:30:55.135Z,100583.38
2022-11-05T14:33:24.556Z,100580.78
2022-11-05T14:35:52.611Z,100577.06
2022-11-05T14:38:24.897Z,100567.03
2022-11-05T14:41:02.715Z,100577.34
2022-11-05T14:43:33.502Z,100577.41
2022-11-05T14:46:06.134Z,100573.13
2022-11-05T14:48:43.299Z,100579.06
2022-11-05T14:51:30.992Z,100583.19
2022-11-05T14:54:15.615Z,100587.31
2022-11-05T14:56:53.276Z,100593.88
2022-11-05T14:59:25.425Z,100586.91
2022-11-05T15:01:56.530Z,100576.06
2022-11-05T15:04:28.872Z,100579.88
2022-11-05T15:07:04.513Z,100570.72
2022-11-05T15:09:37.949Z,100571.88
2022-11-05T15:12:11.301Z,100570.69
2022-11-05T15:15:09.956Z,100569.13
2022-11-05T15:17:51.107Z,100566.91
2022-11-05T15:20:23.728Z,100568.81
2022-11-05T15:22:56.821Z,100568.66
2022-11-05T15:26:05.426Z,100567.78
2022-11-05T15:28:44.777Z,100576.50
2022-11-05T15:31:14.155Z,100574.41
2022-11-05T15:33:47.518Z,100576.16
2022-11-05T15:36:30.154Z,100577.00
2022-11-05T15:39:27.373Z,100577.69
2022-11-05T15:41:44.677Z,100566.28
2022-11-05T15:44:32.879Z,100577.84
2022-11-05T15:47:05.996Z,100580.69
2022-11-05T15:49:32.485Z,100585.78
2022-11-05T15:51:58.852Z,100577.31
2022-11-05T15:54:30.232Z,100580.91
2022-11-05T15:56:59.403Z,100585.66
2022-11-05T15:59:28.955Z,100602.09
2022-11-05T16:02:01.849Z,100598.47
2022-11-05T16:04:34.916Z,100611.03
2022-11-05T16:07:08.462Z,100613.47
2022-11-05T16:09:38.167Z,100615.91
2022-11-05T16:12:19.684Z,100608.06
2022-11-05T16:15:08.849Z,100613.91
2022-11-05T16:18:20.932Z,100612.13
2022-11-05T16:21:03.565Z,100608.59
2022-11-05T16:24:00.060Z,100615.16
2022-11-05T16:29:35.331Z,100619.59
2022-11-05T16:32:17.350Z,100617.97
2022-11-05T16:34:49.749Z,100628.41
2022-11-05T16:37:18.854Z,100623.94
2022-11-05T16:39:45.283Z,100627.88
2022-11-05T16:42:26.316Z,100625.97
2022-11-05T16:44:55.098Z,100622.59
2022-11-05T16:47:22.675Z,100620.69
2022-11-05T16:49:49.771Z,100617.38
2022-11-05T16:52:16.614Z,100629.66
2022-11-05T16:54:43.363Z,100634.13
2022-11-05T16:57:30.997Z,100636.50
2022-11-05T16:59:59.110Z,100639.88
2022-11-05T17:02:26.262Z,100641.72
2022-11-05T17:04:53.167Z,100641.13
2022-11-05T17:07:19.555Z,100647.31
2022-11-05T17:09:45.888Z,100647.19
2022-11-05T17:12:15.126Z,100648.59
2022-11-05T17:14:41.558Z,100639.16
2022-11-05T17:17:07.929Z,100638.41
2022-11-05T17:19:34.481Z,100640.56
2022-11-05T17:22:00.857Z,100646.69
2022-11-05T17:24:27.187Z,100658.13
2022-11-05T17:26:53.551Z,100656.19
2022-11-05T17:29:20.010Z,100661.53
2022-11-05T17:31:46.359Z,100655.63
2022-11-05T17:34:12.806Z,100655.84
2022-11-05T17:36:39.216Z,100659.50
2022-11-05T17:39:05.592Z,100670.13
2022-11-05T17:41:31.998Z,100660.47
2022-11-05T17:43:58.462Z,100651.66
2022-11-05T17:46:25.077Z,100651.34
2022-11-05T17:48:51.501Z,100661.81
2022-11-05T17:51:19.205Z,100655.22
2022-11-05T17:53:48.378Z,100658.94
2022-11-05T17:56:27.271Z,100658.47
2022-11-05T17:59:00.103Z,100656.50
2022-11-05T18:01:28.986Z,100656.88
2022-11-05T18:03:55.866Z,100662.09
2022-11-05T18:06:22.274Z,100666.94
2022-11-05T18:08:48.937Z,100663.75
2022-11-05T18:11:15.449Z,100670.06
2022-11-05T18:13:42.490Z,100667.38
2022-11-05T18:16:09.288Z,100671.25
2022-11-05T18:18:35.644Z,100667.53
2022-11-05T18:21:02.042Z,100663.19
2022-11-05T18:23:28.459Z,100667.69
2022-11-05T18:25:54.884Z,100677.44
2022-11-05T18:28:21.218Z,100678.19
2022-11-05T18:30:47.591Z,100675.97
2022-11-05T18:33:14.413Z,100679.53
2022-11-05T18:35:43.102Z,100685.88
2022-11-05T18:38:09.731Z,100682.41
2022-11-05T18:40:36.114Z,100688.78
2022-11-05T18:43:02.495Z,100693.22
2022-11-05T18:45:30.018Z,100696.94
2022-11-05T18:47:56.520Z,100694.19
2022-11-05T18:50:22.885Z,100694.34
2022-11-05T18:52:49.278Z,100693.00
2022-11-05T18:55:15.651Z,100702.94
2022-11-05T18:57:41.985Z,100693.22
2022-11-05T19:00:08.974Z,100690.44
2022-11-05T19:02:35.595Z,100691.41
2022-11-05T19:07:48.575Z,100678.38
2022-11-05T19:10:15.455Z,100688.22
2022-11-05T19:12:42.136Z,100685.47
2022-11-05T19:15:09.165Z,100681.97
2022-11-05T19:17:36.380Z,100678.56
2022-11-05T19:20:04.305Z,100678.53
2022-11-05T19:22:30.859Z,100679.47
2022-11-05T19:24:57.301Z,100679.41
2022-11-05T19:27:23.681Z,100679.44
2022-11-05T19:29:50.146Z,100675.03
2022-11-05T19:32:16.567Z,100672.44
2022-11-05T19:34:42.925Z,100677.00
2022-11-05T19:37:09.377Z,100666.53
2022-11-05T19:39:35.983Z,100673.56
2022-11-05T19:42:03.882Z,100676.13
2022-11-05T19:44:30.996Z,100677.97
2022-11-05T19:46:57.447Z,100676.78
2022-11-05T19:49:23.910Z,100674.78
2022-11-05T19:51:50.366Z,100675.97
2022-11-05T19:54:16.963Z,100671.72
2022-11-05T19:56:43.338Z,100673.56
2022-11-05T19:59:11.402Z,100679.69
2022-11-05T20:01:37.958Z,100676.31
2022-11-05T20:04:05.546Z,100673.63
2022-11-05T20:06:37.734Z,100670.28
2022-11-05T20:09:21.195Z,100666.88
2022-11-05T20:11:49.764Z,100662.56
2022-11-05T20:14:16.200Z,100669.41
2022-11-05T20:16:43.015Z,100677.59
2022-11-05T20:19:12.788Z,100672.25
2022-11-05T20:21:39.300Z,100667.78
2022-11-05T20:24:06.644Z,100665.06
2022-11-05T20:26:33.732Z,100674.97
2022-11-05T20:29:00.332Z,100672.47
2022-11-05T20:31:26.825Z,100669.72
2022-11-05T20:33:54.405Z,100668.00
2022-11-05T20:36:22.850Z,100674.19
2022-11-05T20:38:51.236Z,100671.50
2022-11-05T20:41:18.393Z,100672.38
2022-11-05T20:43:46.668Z,100675.78
2022-11-05T20:46:14.948Z,100678.38
2022-11-05T20:48:41.643Z,100674.69
2022-11-05T20:51:14.018Z,100679.28
2022-11-05T20:53:40.597Z,100686.44
2022-11-05T20:56:13.039Z,100688.25
2022-11-05T20:58:40.185Z,100683.03
2022-11-05T21:01:07.537Z,100691.66
2022-11-05T21:03:34.598Z,100685.44
2022-11-05T21:06:04.402Z,100683.66
2022-11-05T21:08:31.349Z,100686.41
2022-11-05T21:10:58.019Z,100677.34
2022-11-05T21:13:24.984Z,100675.59
2022-11-05T21:15:53.895Z,100675.91
2022-11-05T21:18:22.893Z,100669.75
2022-11-05T21:20:50.032Z,100679.44
2022-11-05T21:23:16.814Z,100681.19
2022-11-05T21:25:44.124Z,100685.53
2022-11-05T21:28:12.461Z,100685.47
2022-11-05T21:30:41.692Z,100688.22
2022-11-05T21:33:09.014Z,100693.41
2022-11-05T21:35:39.716Z,100684.56
2022-11-05T21:38:06.206Z,100675.53
2022-11-05T21:40:32.812Z,100683.38
2022-11-05T21:42:59.143Z,100687.13
2022-11-05T21:45:25.919Z,100679.81
2022-11-05T21:47:52.355Z,100686.59
2022-11-05T21:50:21.924Z,100686.66
2022-11-05T21:53:07.147Z,100685.09
2022-11-05T21:55:51.963Z,100687.22
2022-11-05T21:58:36.715Z,100686.25
2022-11-05T22:01:03.749Z,100687.41
2022-11-05T22:03:30.142Z,100683.06
2022-11-05T22:05:56.994Z,100677.53
2022-11-05T22:08:23.373Z,100688.69
2022-11-05T22:10:49.712Z,100691.63
2022-11-05T22:13:16.083Z,100683.91
2022-11-05T22:15:42.489Z,100681.31
2022-11-05T22:18:08.830Z,100684.97
2022-11-05T22:20:37.979Z,100681.41
2022-11-05T22:23:08.592Z,100694.81
2022-11-05T22:25:37.370Z,100691.22
2022-11-05T22:28:03.939Z,100688.78
2022-11-05T22:30:34.455Z,100686.16
2022-11-05T22:33:01.261Z,100682.59
2022-11-05T22:35:27.852Z,100679.16
2022-11-05T22:37:54.520Z,100682.59
2022-11-05T22:40:23.810Z,100685.31
2022-11-05T22:42:50.612Z,100690.53
2022-11-05T22:45:16.949Z,100694.06
2022-11-05T22:47:43.285Z,100694.13
2022-11-05T22:50:10.121Z,100699.59
2022-11-05T22:52:36.542Z,100695.06
2022-11-05T22:55:05.025Z,100689.84
2022-11-05T22:57:31.500Z,100685.47
2022-11-05T22:59:57.844Z,100692.59
2022-11-05T23:02:24.495Z,100691.75
2022-11-05T23:04:51.634Z,100698.84
2022-11-05T23:07:50.221Z,100692.75
2022-11-05T23:10:35.010Z,100688.34
2022-11-05T23:13:01.401Z,100684.00
2022-11-05T23:15:46.225Z,100681.34
2022-11-05T23:18:31.187Z,100673.50
2022-11-05T23:21:20.467Z,100672.56
2022-11-05T23:24:04.272Z,100672.56
2022-11-05T23:26:50.251Z,100668.19
2022-11-05T23:29:25.936Z,100678.75
2022-11-05T23:32:11.779Z,100668.28
2022-11-05T23:34:38.285Z,100671.78
2022-11-05T23:37:23.436Z,100682.31
2022-11-05T23:39:50.381Z,100674.47
2022-11-05T23:42:35.934Z,100670.06
2022-11-05T23:45:21.724Z,100668.25
2022-11-05T23:48:06.466Z,100669.94
2022-11-05T23:50:37.169Z,100671.72
2022-11-05T23:53:06.427Z,100667.41
2022-11-05T23:55:32.887Z,100662.03
2022-11-05T23:57:59.317Z,100649.78
